Elfrida, AZ

12:21 AM MST on July 28, 2016 (GMT -0700)
1 Mile East of Elfrida | | Change Station

Elev 4144 ft 31.68 °N, 109.67 °W | Updated 6 seconds ago

Clear
Clear
69.6 °F
Feels Like 69.6 °F
N
0.0
Wind Variable Wind from NNW
Gusts 0.0 mph

Today
High -- | Low -- °F
--% Chance of Precip.
Yesterday
High -- | Low -- °F
Precip. -- in
Pressure 29.88 in
Visibility 10.0 miles
Clouds Clear
Dew Point 68 °F
Humidity 93%
Rainfall 0.00 in
Snow Depth Not available.
5:32 AM 7:17 PM
Waning Crescent, 35% visible
METAR KDUG 280656Z AUTO 00000KT 10SM CLR 21/19 A3009 RMK AO2 SLP116 T02060189 403390206
Pressure 29.88 in
Visibility 10.0 miles
Clouds Clear
Dew Point 68 °F
Humidity 93%
Rainfall 0.00 in
Snow Depth Not available.
5:32 AM 7:17 PM
Waning Crescent, 35% visible
METAR KDUG 280656Z AUTO 00000KT 10SM CLR 21/19 A3009 RMK AO2 SLP116 T02060189 403390206

10-Day Weather Forecast

Almanac

Astronomy

Jul. 28, 2016 Rise Set
Actual Time
Civil Twilight
Nautical Twilight
Astronomical Twilight
Moon
Length of Visible Light
Length of Day
Tomorrow will be .
, % of the Moon is Illuminated

Today's Extremes

State Highs State Lows

Community

WunderPhotos

Upload Photos

1,928,070 photos uploaded!

WunderBlog® & News

Nearby

Air Quality

  Air Quality AQ Index Pollutant
Not available.

Snow Depth

Station Depth Elevation

Earthquake Activity

City Distance Mag. Time & Date
Minimum magnitude displayed is 2.5.

Coastal Water Temperatures

Place Temperature

Stations

Nearby Weather Stations

Station Location Temp. Windchill Dew Point Humidity Wind Precip. Elev Updated Type
                   

Watches & Warnings

There are currently no watches in effect.